Kynouria — V7VY6 — position and weather

sailwx.info

Track history (hours):
 
Tides and Currents Weather Stations Pressure Air Temp Water Temp Dewpoint Dewpoint Depression Visibility Wind Speed Wind Dir Waves Ship Positions

Kynouria

Last reported at 2015-Jun-27 23:05 UTC. Time now 2015-Jul-01 16:58 UTC.
Position N 32°22' E 031°17'.

Length 229 m; draft 13.7 m.

Type: Cargo ship. MMSI: 538004243.

Date/timePositionNaut miles runAvg speedWind from/ knotsBaromVisibWave heightAir tempDewpointWater temp
2015-Jun-27 23:05N 32°22' E 031°17'611.1
2015-Jun-27 22:33N 32°26' E 031°12'2211.0
2015-Jun-27 20:33N 32°43' E 030°55'1111.0
2015-Jun-27 19:33N 32°51' E 030°47'1111.0
2015-Jun-27 18:31N 32°60' E 030°38'1211.1
2015-Jun-27 17:28N 33°08' E 030°28'1011.0
2015-Jun-27 16:33N 33°16' E 030°20'1111.2
2015-Jun-27 15:33N 33°24' E 030°11'1111.4
2015-Jun-27 14:33N 33°32' E 030°02'1211.6
2015-Jun-27 13:33N 33°41' E 029°52'3511.5
2015-Jun-27 10:30N 34°07' E 029°25'1411.5
2015-Jun-27 09:19N 34°17' E 029°13'12111.2
2015-Jun-26 22:26N 35°47' E 027°33'1111.6
2015-Jun-26 21:29N 35°55' E 027°24'3511.4
2015-Jun-26 18:24N 36°21' E 026°55'1011.6
2015-Jun-26 17:33N 36°28' E 026°46'1211.7
2015-Jun-26 16:32N 36°37' E 026°36'1212.0
2015-Jun-26 15:33N 36°45' E 026°26'1211.8
2015-Jun-26 14:33N 36°54' E 026°16'1311.9
2015-Jun-26 13:29N 37°05' E 026°08'1314.0
2015-Jun-26 12:33N 37°17' E 026°01'1211.7
2015-Jun-26 11:33N 37°27' E 025°55'1111.1
2015-Jun-26 10:33N 37°38' E 025°51'227 8.6
2015-Jun-25 08:04N 40°52' E 028°23'610.9
2015-Jun-25 07:29N 40°52' E 028°31'1110.7
2015-Jun-25 06:28N 40°54' E 028°45'910.3
2015-Jun-25 05:33N 40°58' E 028°57'1212.0
2015-Jun-25 04:33N 41°08' E 029°04'  
Track history (hours):
 
Tides and Currents Weather Stations Pressure Air Temp Water Temp Dewpoint Dewpoint Depression Visibility Wind Speed Wind Dir Waves Ship Positions

Kynouria

Last reported at 2015-Jun-27 23:05 UTC. Time now 2015-Jul-01 16:58 UTC.
Position N 32°22' E 031°17'.

Length 229 m; draft 13.7 m.

Type: Cargo ship. MMSI: 538004243.

Date/timePositionNaut miles runAvg speedWind from/ knotsBaromVisibWave heightAir tempDewpointWater temp
2015-Jun-27 23:05N 32°22' E 031°17'611.1
2015-Jun-27 22:33N 32°26' E 031°12'2211.0
2015-Jun-27 20:33N 32°43' E 030°55'1111.0
2015-Jun-27 19:33N 32°51' E 030°47'1111.0
2015-Jun-27 18:31N 32°60' E 030°38'1211.1
2015-Jun-27 17:28N 33°08' E 030°28'1011.0
2015-Jun-27 16:33N 33°16' E 030°20'1111.2
2015-Jun-27 15:33N 33°24' E 030°11'1111.4
2015-Jun-27 14:33N 33°32' E 030°02'1211.6
2015-Jun-27 13:33N 33°41' E 029°52'3511.5
2015-Jun-27 10:30N 34°07' E 029°25'1411.5
2015-Jun-27 09:19N 34°17' E 029°13'12111.2
2015-Jun-26 22:26N 35°47' E 027°33'1111.6
2015-Jun-26 21:29N 35°55' E 027°24'3511.4
2015-Jun-26 18:24N 36°21' E 026°55'1011.6
2015-Jun-26 17:33N 36°28' E 026°46'1211.7
2015-Jun-26 16:32N 36°37' E 026°36'1212.0
2015-Jun-26 15:33N 36°45' E 026°26'1211.8
2015-Jun-26 14:33N 36°54' E 026°16'1311.9
2015-Jun-26 13:29N 37°05' E 026°08'1314.0
2015-Jun-26 12:33N 37°17' E 026°01'1211.7
2015-Jun-26 11:33N 37°27' E 025°55'1111.1
2015-Jun-26 10:33N 37°38' E 025°51'227 8.6
2015-Jun-25 08:04N 40°52' E 028°23'610.9
2015-Jun-25 07:29N 40°52' E 028°31'1110.7
2015-Jun-25 06:28N 40°54' E 028°45'910.3
2015-Jun-25 05:33N 40°58' E 028°57'1212.0
2015-Jun-25 04:33N 41°08' E 029°04'  

Dump ship's entire track history